createdAt,value
2019-03-12T00:00:08.199Z,2.60
2019-03-12T00:02:36.737Z,2.60
2019-03-12T00:05:07.092Z,4.63
2019-03-12T00:07:35.549Z,3.07
2019-03-12T00:10:08.366Z,3.10
2019-03-12T00:12:36.864Z,2.20
2019-03-12T00:15:06.722Z,3.10
2019-03-12T00:17:35.184Z,3.00
2019-03-12T00:20:05.173Z,2.90
2019-03-12T00:22:33.684Z,2.50
2019-03-12T00:25:02.089Z,3.47
2019-03-12T00:27:30.774Z,2.63
2019-03-12T00:29:59.310Z,2.97
2019-03-12T00:32:27.736Z,2.37
2019-03-12T00:34:56.237Z,2.27
2019-03-12T00:37:24.706Z,2.53
2019-03-12T00:39:53.191Z,2.30
2019-03-12T00:42:21.858Z,2.23
2019-03-12T00:44:50.354Z,2.40
2019-03-12T00:47:18.855Z,2.73
2019-03-12T00:49:47.378Z,2.13
2019-03-12T00:52:15.902Z,2.20
2019-03-12T00:54:44.730Z,2.43
2019-03-12T00:57:13.268Z,2.17
2019-03-12T00:59:41.870Z,2.20
2019-03-12T01:02:10.709Z,2.57
2019-03-12T01:04:39.191Z,2.70
2019-03-12T01:07:07.692Z,2.80
2019-03-12T01:09:36.341Z,2.70
2019-03-12T01:12:05.259Z,2.30
2019-03-12T01:14:33.943Z,2.47
2019-03-12T01:17:02.480Z,2.47
2019-03-12T01:19:30.998Z,3.03
2019-03-12T01:21:59.618Z,2.10
2019-03-12T01:24:28.072Z,2.83
2019-03-12T01:26:56.509Z,2.70
2019-03-12T01:29:25.072Z,2.77
2019-03-12T01:31:53.457Z,2.73
2019-03-12T01:34:22.041Z,2.27
2019-03-12T01:36:50.454Z,2.53
2019-03-12T01:39:18.938Z,2.63
2019-03-12T01:41:47.379Z,2.90
2019-03-12T01:44:15.865Z,2.30
2019-03-12T01:46:44.403Z,2.30
2019-03-12T01:49:12.853Z,2.60
2019-03-12T01:51:41.292Z,2.67
2019-03-12T01:54:09.792Z,2.30
2019-03-12T01:56:38.220Z,2.50
2019-03-12T01:59:06.683Z,3.30
2019-03-12T02:01:35.126Z,2.70
2019-03-12T02:04:03.560Z,3.67
2019-03-12T02:06:31.982Z,3.97
2019-03-12T02:09:00.466Z,2.70
2019-03-12T02:11:28.972Z,2.90
2019-03-12T02:13:57.452Z,2.87
2019-03-12T02:16:25.885Z,2.80
2019-03-12T02:18:54.322Z,2.50
2019-03-12T02:21:22.752Z,3.07
2019-03-12T02:23:51.262Z,2.60
2019-03-12T02:26:19.685Z,3.40
2019-03-12T02:28:48.102Z,3.10
2019-03-12T02:31:16.519Z,3.20
2019-03-12T02:33:45.191Z,2.63
2019-03-12T02:36:13.671Z,2.97
2019-03-12T02:38:42.275Z,2.90
2019-03-12T02:41:10.682Z,3.47
2019-03-12T02:43:39.228Z,2.40
2019-03-12T02:46:07.798Z,2.53
2019-03-12T02:48:36.390Z,2.63
2019-03-12T02:51:04.869Z,3.23
2019-03-12T02:53:33.331Z,2.73
2019-03-12T02:56:02.223Z,2.30
2019-03-12T02:58:30.768Z,3.03
2019-03-12T03:00:59.245Z,3.13
2019-03-12T03:03:27.692Z,3.47
2019-03-12T03:06:00.425Z,3.17
2019-03-12T03:08:30.512Z,3.00
2019-03-12T03:10:59.000Z,2.27
2019-03-12T03:13:27.505Z,3.23
2019-03-12T03:15:55.937Z,2.40
2019-03-12T03:18:24.396Z,3.53
2019-03-12T03:20:52.797Z,2.50
2019-03-12T03:23:21.306Z,3.43
2019-03-12T03:25:49.724Z,3.40
2019-03-12T03:28:18.213Z,2.80
2019-03-12T03:30:46.664Z,2.47
2019-03-12T03:33:15.073Z,2.57
2019-03-12T03:35:43.510Z,2.90
2019-03-12T03:38:11.927Z,3.30
2019-03-12T03:40:40.401Z,3.10
2019-03-12T03:43:09.020Z,2.70
2019-03-12T03:45:37.455Z,2.60
2019-03-12T03:48:06.063Z,2.57
2019-03-12T03:50:34.646Z,2.97
2019-03-12T03:53:03.049Z,2.43
2019-03-12T03:55:31.546Z,3.30
2019-03-12T03:58:00.049Z,2.87
2019-03-12T04:00:28.505Z,2.60
2019-03-12T04:02:56.993Z,3.50
2019-03-12T04:05:25.429Z,2.93
2019-03-12T04:07:53.925Z,3.00
2019-03-12T04:10:22.383Z,3.57
2019-03-12T04:12:50.779Z,2.57
2019-03-12T04:15:19.596Z,2.97
2019-03-12T04:17:48.070Z,2.50
2019-03-12T04:20:19.339Z,3.00
2019-03-12T04:22:47.920Z,2.73
2019-03-12T04:25:16.414Z,3.10
2019-03-12T04:27:44.923Z,3.40
2019-03-12T04:30:17.159Z,3.33
2019-03-12T04:32:45.697Z,3.47
2019-03-12T04:35:20.356Z,3.20
2019-03-12T04:37:48.809Z,3.97
2019-03-12T04:40:17.224Z,3.13
2019-03-12T04:42:45.663Z,3.87
2019-03-12T04:45:17.328Z,3.70
2019-03-12T04:47:45.835Z,3.97
2019-03-12T04:50:14.991Z,4.57
2019-03-12T04:52:43.493Z,4.67
2019-03-12T04:55:14.217Z,3.80
2019-03-12T04:57:42.716Z,3.60
2019-03-12T05:00:14.054Z,4.80
2019-03-12T05:02:42.509Z,3.77
2019-03-12T05:05:11.009Z,4.43
2019-03-12T05:07:39.452Z,4.23
2019-03-12T05:10:13.121Z,3.53
2019-03-12T05:12:41.566Z,3.60
2019-03-12T05:15:12.901Z,3.90
2019-03-12T05:17:41.426Z,4.00
2019-03-12T05:20:11.768Z,4.60
2019-03-12T05:22:40.259Z,4.00
2019-03-12T05:25:11.426Z,3.60
2019-03-12T05:27:40.090Z,4.20
2019-03-12T05:30:17.281Z,3.90
2019-03-12T05:32:45.805Z,4.27
2019-03-12T05:35:14.355Z,3.60
2019-03-12T05:37:42.860Z,3.63
2019-03-12T05:40:13.463Z,3.90
2019-03-12T05:42:41.989Z,2.70
2019-03-12T05:45:14.968Z,3.70
2019-03-12T05:47:43.405Z,3.33
2019-03-12T05:50:16.024Z,3.80
2019-03-12T05:52:44.512Z,3.70
2019-03-12T05:55:15.489Z,3.53
2019-03-12T05:57:43.937Z,3.70
2019-03-12T06:00:21.583Z,3.13
2019-03-12T06:02:50.039Z,3.60
2019-03-12T06:05:18.632Z,3.30
2019-03-12T06:07:47.102Z,3.60
2019-03-12T06:10:16.405Z,2.73
2019-03-12T06:12:44.877Z,2.83
2019-03-12T06:15:14.665Z,3.80
2019-03-12T06:17:43.088Z,3.40
2019-03-12T06:20:13.812Z,3.00
2019-03-12T06:22:42.233Z,3.80
2019-03-12T06:25:11.061Z,3.33
2019-03-12T06:27:39.514Z,2.73
2019-03-12T06:30:13.810Z,3.37
2019-03-12T06:32:46.587Z,2.87
2019-03-12T06:35:16.682Z,2.77
2019-03-12T06:37:52.682Z,3.57
2019-03-12T06:40:22.802Z,3.40
2019-03-12T06:42:55.869Z,3.40
2019-03-12T06:45:28.708Z,3.57
2019-03-12T06:47:58.773Z,3.53
2019-03-12T06:50:30.425Z,2.90
2019-03-12T06:53:03.113Z,2.70
2019-03-12T06:55:33.512Z,3.67
2019-03-12T06:58:07.770Z,2.93
2019-03-12T07:00:37.824Z,3.13
2019-03-12T07:03:13.342Z,4.03
2019-03-12T07:05:58.332Z,3.60
2019-03-12T07:08:28.425Z,3.87
2019-03-12T07:11:07.324Z,3.60
2019-03-12T07:13:43.070Z,3.00
2019-03-12T07:16:13.162Z,2.33
2019-03-12T07:18:59.237Z,3.03
2019-03-12T07:21:32.330Z,2.70
2019-03-12T07:24:13.179Z,3.07
2019-03-12T07:26:42.929Z,2.63
2019-03-12T07:29:15.624Z,2.90
2019-03-12T07:31:45.697Z,2.83
2019-03-12T07:34:21.735Z,3.30
2019-03-12T07:36:51.821Z,2.60
2019-03-12T07:39:21.977Z,2.80
2019-03-12T07:41:54.468Z,2.40
2019-03-12T07:44:36.337Z,3.03
2019-03-12T07:47:09.540Z,2.87
2019-03-12T07:49:55.590Z,2.63
2019-03-12T07:52:28.483Z,2.30
2019-03-12T07:55:04.579Z,2.30
2019-03-12T07:57:50.881Z,2.10
2019-03-12T08:00:35.825Z,2.47
2019-03-12T08:03:22.228Z,1.97
2019-03-12T08:05:54.748Z,2.00
2019-03-12T08:08:30.764Z,1.90
2019-03-12T08:11:09.817Z,1.90
2019-03-12T08:13:55.883Z,2.00
2019-03-12T08:16:28.716Z,2.10
2019-03-12T08:19:04.560Z,2.17
2019-03-12T08:21:34.615Z,2.53
2019-03-12T08:24:16.472Z,2.30
2019-03-12T08:26:55.178Z,3.20
2019-03-12T08:29:31.150Z,2.80
2019-03-12T08:32:10.377Z,2.30
2019-03-12T08:34:46.444Z,3.37
2019-03-12T08:37:16.506Z,2.23
2019-03-12T08:39:52.605Z,2.40
2019-03-12T08:42:22.722Z,2.23
2019-03-12T08:44:57.902Z,3.70
2019-03-12T08:47:27.241Z,1.80
2019-03-12T08:50:00.393Z,2.10
2019-03-12T08:52:30.426Z,2.33
2019-03-12T08:55:04.184Z,2.17
2019-03-12T08:57:37.320Z,1.90
2019-03-12T09:00:26.601Z,2.77
2019-03-12T09:03:14.462Z,2.53
2019-03-12T09:05:56.588Z,3.10
2019-03-12T09:08:35.793Z,2.83
2019-03-12T09:11:06.000Z,1.60
2019-03-12T09:13:36.076Z,2.07
2019-03-12T09:16:06.154Z,2.17
2019-03-12T09:18:52.477Z,2.30
2019-03-12T09:21:22.547Z,1.80
2019-03-12T09:23:52.670Z,2.00
2019-03-12T09:26:25.465Z,2.60
2019-03-12T09:28:58.221Z,1.70
2019-03-12T09:31:40.033Z,1.60
2019-03-12T09:34:22.185Z,2.00
2019-03-12T09:36:57.808Z,1.80
2019-03-12T09:39:34.086Z,2.70
2019-03-12T09:42:20.218Z,2.00
2019-03-12T09:44:50.288Z,2.30
2019-03-12T09:47:26.167Z,2.13
2019-03-12T09:49:56.210Z,2.43
2019-03-12T09:52:29.006Z,2.97
2019-03-12T09:55:15.328Z,2.70
2019-03-12T09:57:51.382Z,2.73
2019-03-12T10:00:23.909Z,3.03
2019-03-12T10:03:05.641Z,1.83
2019-03-12T10:05:35.721Z,1.37
2019-03-12T10:08:08.558Z,1.90
2019-03-12T10:10:50.424Z,2.10
2019-03-12T10:13:20.526Z,2.43
2019-03-12T10:15:52.104Z,1.87
2019-03-12T10:18:24.846Z,2.00
2019-03-12T10:20:57.718Z,1.50
2019-03-12T10:23:33.914Z,1.97
2019-03-12T10:26:04.053Z,1.97
2019-03-12T10:28:49.165Z,1.70
2019-03-12T10:31:19.218Z,1.70
2019-03-12T10:33:51.973Z,1.63
2019-03-12T10:36:25.144Z,1.70
2019-03-12T10:39:37.082Z,1.60
2019-03-12T10:42:09.951Z,1.83
2019-03-12T10:44:40.016Z,1.60
2019-03-12T10:47:12.614Z,1.93
2019-03-12T10:49:41.030Z,1.67
2019-03-12T10:52:09.564Z,1.47
2019-03-12T10:54:38.096Z,1.80
2019-03-12T10:57:06.577Z,1.70
2019-03-12T10:59:34.981Z,1.40
2019-03-12T11:02:03.430Z,1.97
2019-03-12T11:04:31.841Z,1.70
2019-03-12T11:07:00.381Z,1.63
2019-03-12T11:09:28.810Z,1.77
2019-03-12T11:11:57.312Z,1.67
2019-03-12T11:14:25.774Z,1.43
2019-03-12T11:16:54.266Z,1.50
2019-03-12T11:19:22.686Z,1.40
2019-03-12T11:21:51.124Z,1.53
2019-03-12T11:24:19.526Z,1.53
2019-03-12T11:26:47.968Z,1.67
2019-03-12T11:29:16.394Z,1.23
2019-03-12T11:31:44.837Z,1.17
2019-03-12T11:34:13.268Z,1.27
2019-03-12T11:36:41.732Z,1.30
2019-03-12T11:39:10.270Z,1.37
2019-03-12T11:41:38.720Z,1.50
2019-03-12T11:44:07.120Z,1.33
2019-03-12T11:46:43.638Z,1.10
2019-03-12T11:49:05.833Z,1.37
2019-03-12T11:51:34.292Z,1.23
2019-03-12T11:54:02.717Z,1.50
2019-03-12T11:56:31.297Z,1.43
2019-03-12T11:58:59.718Z,1.33
2019-03-12T12:01:28.313Z,1.27
2019-03-12T12:03:56.806Z,1.50
2019-03-12T12:06:25.236Z,1.40
2019-03-12T12:08:53.881Z,1.20
2019-03-12T12:11:22.391Z,1.30
2019-03-12T12:13:50.842Z,1.20
2019-03-12T12:16:19.336Z,1.33
2019-03-12T12:18:47.809Z,1.27
2019-03-12T12:21:16.225Z,1.10
2019-03-12T12:23:44.784Z,1.13
2019-03-12T12:26:13.206Z,1.10
2019-03-12T12:28:41.619Z,1.40
2019-03-12T12:31:10.029Z,1.30
2019-03-12T12:33:38.500Z,1.10
2019-03-12T12:36:06.917Z,1.40
2019-03-12T12:38:35.344Z,1.53
2019-03-12T12:41:03.794Z,1.40
2019-03-12T12:43:32.234Z,1.03
2019-03-12T12:46:00.740Z,1.10
2019-03-12T12:48:29.246Z,1.30
2019-03-12T12:51:03.141Z,1.73
2019-03-12T12:53:27.892Z,1.30
2019-03-12T12:55:56.307Z,1.50
2019-03-12T12:58:24.747Z,1.20
2019-03-12T13:00:54.809Z,1.20
2019-03-12T13:03:23.208Z,1.20
2019-03-12T13:05:51.645Z,1.20
2019-03-12T13:08:20.087Z,1.30
2019-03-12T13:10:48.532Z,1.07
2019-03-12T13:13:17.045Z,1.70
2019-03-12T13:15:45.553Z,1.30
2019-03-12T13:18:16.481Z,1.50
2019-03-12T13:20:44.184Z,1.43
2019-03-12T13:23:12.668Z,1.40
2019-03-12T13:25:41.168Z,1.40
2019-03-12T13:28:09.601Z,1.63
2019-03-12T13:30:38.097Z,1.33
2019-03-12T13:33:06.537Z,1.50
2019-03-12T13:35:35.214Z,1.30
2019-03-12T13:38:03.785Z,1.57
2019-03-12T13:40:32.224Z,1.70
2019-03-12T13:43:00.677Z,1.97
2019-03-12T13:45:31.097Z,1.80
2019-03-12T13:47:59.828Z,1.67
2019-03-12T13:50:28.440Z,1.43
2019-03-12T13:52:57.003Z,1.30
2019-03-12T13:55:25.570Z,2.20
2019-03-12T13:57:54.124Z,1.70
2019-03-12T14:00:23.892Z,1.60
2019-03-12T14:02:52.794Z,1.63
2019-03-12T14:05:21.347Z,1.80
2019-03-12T14:07:49.923Z,1.53
2019-03-12T14:10:20.574Z,2.10
2019-03-12T14:12:49.450Z,2.13
2019-03-12T14:15:26.710Z,1.50
2019-03-12T14:17:55.338Z,2.00
2019-03-12T14:20:47.399Z,1.73
2019-03-12T14:23:21.459Z,1.83
2019-03-12T14:25:50.830Z,1.60
2019-03-12T14:28:19.376Z,1.30
2019-03-12T14:30:48.549Z,1.23
2019-03-12T14:33:17.148Z,1.40
2019-03-12T14:35:51.357Z,1.30
2019-03-12T14:38:16.040Z,2.10
2019-03-12T14:40:44.599Z,2.37
2019-03-12T14:43:13.121Z,2.00
2019-03-12T14:45:52.110Z,1.20
2019-03-12T14:48:35.449Z,1.60
2019-03-12T14:51:04.722Z,1.50
2019-03-12T14:53:33.247Z,1.60
2019-03-12T14:56:01.721Z,2.10
2019-03-12T14:58:30.237Z,1.50
2019-03-12T15:00:58.701Z,1.60
2019-03-12T15:03:27.160Z,1.80
2019-03-12T15:05:55.729Z,1.60
2019-03-12T15:08:24.258Z,1.60
2019-03-12T15:10:52.693Z,1.73
2019-03-12T15:13:21.141Z,1.60
2019-03-12T15:15:49.622Z,1.60
2019-03-12T15:18:18.029Z,1.60
2019-03-12T15:20:46.450Z,1.70
2019-03-12T15:23:14.873Z,1.50
2019-03-12T15:25:43.302Z,1.57
2019-03-12T15:28:11.717Z,1.70
2019-03-12T15:30:40.630Z,1.80
2019-03-12T15:33:09.038Z,1.60
2019-03-12T15:35:37.546Z,1.97
2019-03-12T15:38:05.969Z,2.00
2019-03-12T15:40:34.444Z,1.60
2019-03-12T15:43:02.915Z,2.00
2019-03-12T15:45:31.356Z,1.50
2019-03-12T15:47:59.812Z,1.30
2019-03-12T15:50:28.240Z,1.20
2019-03-12T15:52:56.680Z,1.77
2019-03-12T15:55:25.146Z,1.33
2019-03-12T15:57:53.570Z,1.57
2019-03-12T16:00:22.086Z,1.57
2019-03-12T16:02:50.547Z,2.33
2019-03-12T16:05:19.008Z,1.73
2019-03-12T16:07:47.454Z,1.67
2019-03-12T16:10:19.781Z,1.93
2019-03-12T16:12:48.477Z,1.80
2019-03-12T16:15:17.933Z,1.50
2019-03-12T16:17:46.370Z,1.60
2019-03-12T16:20:21.997Z,2.03
2019-03-12T16:22:51.379Z,1.80
2019-03-12T16:25:19.791Z,1.77
2019-03-12T16:27:48.237Z,1.93
2019-03-12T16:30:18.100Z,1.53
2019-03-12T16:32:46.627Z,2.20
2019-03-12T16:35:15.122Z,2.20
2019-03-12T16:37:43.680Z,1.90
2019-03-12T16:40:17.168Z,2.13
2019-03-12T16:42:45.853Z,1.97
2019-03-12T16:45:19.020Z,1.70
2019-03-12T16:47:47.481Z,2.27
2019-03-12T16:50:16.768Z,2.50
2019-03-12T16:52:45.217Z,2.80
2019-03-12T16:55:18.369Z,2.40
2019-03-12T16:57:46.944Z,2.30
2019-03-12T17:00:20.115Z,2.20
2019-03-12T17:02:48.633Z,2.30
2019-03-12T17:05:17.159Z,2.63
2019-03-12T17:07:45.575Z,2.70
2019-03-12T17:10:18.679Z,2.77
2019-03-12T17:12:47.209Z,2.23
2019-03-12T17:15:17.395Z,2.30
2019-03-12T17:17:45.878Z,2.70
2019-03-12T17:20:15.713Z,2.60
2019-03-12T17:22:44.275Z,2.30
2019-03-12T17:25:13.006Z,2.10
2019-03-12T17:27:41.583Z,2.77
2019-03-12T17:30:15.802Z,2.03
2019-03-12T17:32:44.228Z,2.30
2019-03-12T17:35:15.747Z,3.40
2019-03-12T17:37:44.171Z,2.50
2019-03-12T17:40:17.863Z,2.40
2019-03-12T17:42:46.280Z,2.17
2019-03-12T17:45:14.869Z,2.70
2019-03-12T17:47:43.373Z,3.00
2019-03-12T17:50:13.355Z,2.40
2019-03-12T17:52:41.780Z,2.93
2019-03-12T17:55:13.996Z,2.47
2019-03-12T17:57:42.725Z,2.30
2019-03-12T18:00:21.684Z,1.70
2019-03-12T18:02:50.107Z,2.00
2019-03-12T18:05:18.690Z,2.10
2019-03-12T18:07:47.286Z,2.03
2019-03-12T18:10:17.084Z,2.20
2019-03-12T18:12:45.792Z,2.20
2019-03-12T18:15:20.999Z,2.60
2019-03-12T18:17:49.575Z,2.50
2019-03-12T18:20:23.084Z,2.13
2019-03-12T18:22:51.695Z,2.50
2019-03-12T18:25:34.890Z,2.13
2019-03-12T18:28:03.596Z,2.87
2019-03-12T18:30:32.011Z,2.63
2019-03-12T18:33:00.552Z,2.97
2019-03-12T18:35:29.044Z,2.80
2019-03-12T18:37:57.485Z,2.47
2019-03-12T18:40:27.106Z,2.50
2019-03-12T18:42:55.672Z,2.00
2019-03-12T18:45:38.160Z,2.33
2019-03-12T18:48:06.882Z,2.47
2019-03-12T18:50:35.560Z,2.50
2019-03-12T18:53:04.282Z,3.10
2019-03-12T18:55:38.126Z,3.00
2019-03-12T18:58:09.842Z,2.20
2019-03-12T19:00:40.423Z,2.90
2019-03-12T19:03:09.018Z,3.10
2019-03-12T19:05:37.595Z,2.87
2019-03-12T19:08:06.254Z,2.70
2019-03-12T19:10:35.042Z,2.80
2019-03-12T19:13:03.690Z,3.97
2019-03-12T19:15:32.248Z,2.53
2019-03-12T19:18:00.794Z,2.70
2019-03-12T19:20:32.775Z,2.80
2019-03-12T19:22:59.814Z,2.67
2019-03-12T19:25:38.311Z,3.03
2019-03-12T19:28:09.065Z,2.30
2019-03-12T19:30:37.700Z,2.30
2019-03-12T19:33:11.776Z,2.20
2019-03-12T19:35:40.400Z,1.93
2019-03-12T19:38:09.148Z,2.10
2019-03-12T19:40:42.888Z,1.87
2019-03-12T19:43:11.535Z,2.30
2019-03-12T19:45:40.054Z,1.57
2019-03-12T19:48:08.598Z,1.70
2019-03-12T19:50:37.311Z,1.60
2019-03-12T19:53:05.881Z,1.50
2019-03-12T19:55:42.751Z,1.90
2019-03-12T19:58:11.266Z,1.50
2019-03-12T20:00:40.966Z,1.90
2019-03-12T20:03:14.597Z,1.93
2019-03-12T20:05:39.873Z,1.77
2019-03-12T20:08:08.523Z,2.10
2019-03-12T20:10:42.679Z,1.50
2019-03-12T20:13:14.236Z,1.60
2019-03-12T20:16:11.035Z,1.90
2019-03-12T20:19:17.149Z,1.73
2019-03-12T20:22:06.305Z,1.93
2019-03-12T20:24:56.815Z,1.90
2019-03-12T20:27:50.546Z,1.70
2019-03-12T20:30:44.510Z,2.13
2019-03-12T20:33:32.276Z,1.73
2019-03-12T20:36:12.430Z,2.60
2019-03-12T20:38:52.781Z,2.50
2019-03-12T20:41:57.448Z,2.27
2019-03-12T20:44:48.370Z,1.60
2019-03-12T20:47:31.823Z,2.00
2019-03-12T20:50:19.865Z,2.10
2019-03-12T20:53:00.101Z,2.10
2019-03-12T20:55:40.534Z,2.37
2019-03-12T20:58:36.026Z,2.90
2019-03-12T21:01:16.682Z,2.20
2019-03-12T21:04:06.212Z,2.53
2019-03-12T21:07:03.023Z,3.17
2019-03-12T21:09:58.673Z,2.30
2019-03-12T21:12:46.631Z,3.10
2019-03-12T21:15:49.875Z,3.03
2019-03-12T21:18:49.838Z,2.67
2019-03-12T21:21:43.801Z,2.90
2019-03-12T21:24:24.194Z,3.00
2019-03-12T21:27:11.951Z,2.57
2019-03-12T21:29:42.289Z,2.70
2019-03-12T21:32:12.110Z,3.80
2019-03-12T21:34:40.944Z,3.50
2019-03-12T21:37:09.507Z,3.77
2019-03-12T21:39:38.123Z,3.17
2019-03-12T21:42:06.983Z,2.90
2019-03-12T21:44:35.669Z,3.20
2019-03-12T21:47:04.549Z,2.43
2019-03-12T21:49:33.066Z,2.40
2019-03-12T21:52:01.611Z,2.67
2019-03-12T21:54:30.084Z,2.03
2019-03-12T21:56:58.542Z,2.20
2019-03-12T21:59:27.027Z,2.20
2019-03-12T22:01:55.591Z,1.87
2019-03-12T22:04:24.059Z,3.20
2019-03-12T22:06:52.718Z,2.13
2019-03-12T22:09:21.285Z,1.80
2019-03-12T22:11:49.809Z,2.20
2019-03-12T22:14:18.325Z,2.50
2019-03-12T22:16:48.495Z,2.20
2019-03-12T22:19:16.926Z,2.13
2019-03-12T22:21:53.143Z,1.90
2019-03-12T22:24:21.596Z,2.13
2019-03-12T22:26:50.118Z,2.10
2019-03-12T22:29:18.558Z,2.43
2019-03-12T22:31:47.108Z,2.50
2019-03-12T22:34:15.521Z,2.03
2019-03-12T22:36:44.048Z,2.80
2019-03-12T22:39:12.555Z,2.17
2019-03-12T22:41:41.053Z,2.63
2019-03-12T22:44:09.482Z,1.70
2019-03-12T22:46:37.924Z,3.40
2019-03-12T22:49:06.372Z,2.50
2019-03-12T22:51:34.821Z,2.23
2019-03-12T22:54:03.250Z,2.27
2019-03-12T22:56:31.682Z,1.47
2019-03-12T22:59:00.191Z,1.93
2019-03-12T23:01:28.723Z,2.27
2019-03-12T23:03:57.183Z,1.73
2019-03-12T23:06:28.584Z,1.67
2019-03-12T23:08:57.460Z,1.90
2019-03-12T23:11:26.070Z,2.10
2019-03-12T23:13:54.564Z,1.73
2019-03-12T23:16:22.991Z,1.50
2019-03-12T23:18:51.446Z,2.37
2019-03-12T23:21:20.026Z,1.63
2019-03-12T23:23:48.493Z,1.40
2019-03-12T23:26:16.965Z,2.00
2019-03-12T23:28:45.490Z,1.50
2019-03-12T23:31:13.969Z,1.47
2019-03-12T23:33:42.485Z,1.20
2019-03-12T23:36:11.579Z,1.50
2019-03-12T23:38:40.244Z,1.27
2019-03-12T23:41:08.662Z,1.57
2019-03-12T23:43:37.378Z,1.40
2019-03-12T23:46:06.141Z,1.40
2019-03-12T23:48:34.874Z,1.23
2019-03-12T23:51:03.585Z,1.73
2019-03-12T23:53:32.404Z,1.40
2019-03-12T23:56:01.123Z,1.90
